createdAt,value
2019-02-07T00:02:20.949Z,51.59
2019-02-07T00:07:29.262Z,50.96
2019-02-07T00:12:37.492Z,48.08
2019-02-07T00:17:45.969Z,46.21
2019-02-07T00:22:54.313Z,48.48
2019-02-07T00:28:02.450Z,49.10
2019-02-07T00:33:10.724Z,44.32
2019-02-07T00:38:19.046Z,39.53
2019-02-07T00:43:27.191Z,38.97
2019-02-07T00:48:35.586Z,38.08
2019-02-07T00:53:43.836Z,38.65
2019-02-07T00:58:52.128Z,38.42
2019-02-07T01:04:00.380Z,38.44
2019-02-07T01:09:08.729Z,38.27
2019-02-07T01:14:17.240Z,37.77
2019-02-07T01:19:25.580Z,37.34
2019-02-07T01:24:33.740Z,39.55
2019-02-07T01:29:42.072Z,37.34
2019-02-07T01:34:48.787Z,39.05
2019-02-07T01:39:56.922Z,38.94
2019-02-07T01:45:12.865Z,38.16
2019-02-07T01:50:12.367Z,38.73
2019-02-07T01:55:20.586Z,36.66
2019-02-07T02:00:28.837Z,35.74
2019-02-07T02:05:37.569Z,36.28
2019-02-07T02:10:45.869Z,36.30
2019-02-07T02:15:54.097Z,37.56
2019-02-07T02:21:02.385Z,38.28
2019-02-07T02:26:10.703Z,40.60
2019-02-07T02:31:19.048Z,40.20
2019-02-07T02:36:27.361Z,39.55
2019-02-07T02:41:35.473Z,37.73
2019-02-07T02:46:43.725Z,35.58
2019-02-07T02:51:52.048Z,38.05
2019-02-07T02:57:00.324Z,36.29
2019-02-07T03:02:08.038Z,33.44
2019-02-07T03:07:16.599Z,33.85
2019-02-07T03:12:24.909Z,31.26
2019-02-07T03:17:33.160Z,32.25
2019-02-07T03:22:41.530Z,31.83
2019-02-07T03:27:49.818Z,31.28
2019-02-07T03:32:58.162Z,30.29
2019-02-07T03:38:06.777Z,29.96
2019-02-07T03:43:15.109Z,29.68
2019-02-07T03:48:23.345Z,34.66
2019-02-07T03:53:31.687Z,35.24
2019-02-07T03:58:39.962Z,32.50
2019-02-07T04:03:48.198Z,33.59
2019-02-07T04:08:56.462Z,32.40
2019-02-07T04:14:04.753Z,32.00
2019-02-07T04:19:13.014Z,33.46
2019-02-07T04:24:21.346Z,31.96
2019-02-07T04:29:29.584Z,29.47
2019-02-07T04:34:37.903Z,27.95
2019-02-07T04:39:46.113Z,28.04
2019-02-07T04:44:54.355Z,26.04
2019-02-07T04:50:02.553Z,26.64
2019-02-07T04:55:10.813Z,24.81
2019-02-07T05:00:19.035Z,25.28
2019-02-07T05:05:27.701Z,24.73
2019-02-07T05:10:36.129Z,24.11
2019-02-07T05:15:44.313Z,25.00
2019-02-07T05:20:52.648Z,23.79
2019-02-07T05:26:00.949Z,22.85
2019-02-07T05:31:09.185Z,24.36
2019-02-07T05:36:17.441Z,22.69
2019-02-07T05:41:25.711Z,21.71
2019-02-07T05:46:34.237Z,21.63
2019-02-07T05:51:42.481Z,22.61
2019-02-07T05:56:51.269Z,21.79
2019-02-07T06:01:59.525Z,20.67
2019-02-07T06:07:08.136Z,21.33
2019-02-07T06:12:16.421Z,19.40
2019-02-07T06:17:24.687Z,20.60
2019-02-07T06:22:33.022Z,19.65
2019-02-07T06:27:41.449Z,19.96
2019-02-07T06:32:49.593Z,19.75
2019-02-07T06:37:58.194Z,20.27
2019-02-07T06:43:06.462Z,17.72
2019-02-07T06:48:15.071Z,18.44
2019-02-07T06:53:23.325Z,17.87
2019-02-07T06:58:31.997Z,17.90
2019-02-07T07:03:40.317Z,18.61
2019-02-07T07:08:48.650Z,18.52
2019-02-07T07:13:57.016Z,18.76
2019-02-07T07:19:05.666Z,18.71
2019-02-07T07:24:13.865Z,19.07
2019-02-07T07:29:20.593Z,18.18
2019-02-07T07:34:28.816Z,19.10
2019-02-07T07:39:37.216Z,18.97
2019-02-07T07:44:45.507Z,18.77
2019-02-07T07:49:53.820Z,17.75
2019-02-07T07:55:02.085Z,17.99
2019-02-07T08:00:10.364Z,17.66
2019-02-07T08:05:18.657Z,18.07
2019-02-07T08:10:27.606Z,16.72
2019-02-07T08:15:35.804Z,17.91
2019-02-07T08:20:44.008Z,17.68
2019-02-07T08:25:52.325Z,17.76
2019-02-07T08:31:00.533Z,18.64
2019-02-07T08:36:08.817Z,17.75
2019-02-07T08:41:17.070Z,18.26
2019-02-07T08:46:25.442Z,17.85
2019-02-07T08:51:33.662Z,19.57
2019-02-07T08:56:41.306Z,18.64
2019-02-07T09:01:49.638Z,19.56
2019-02-07T09:06:58.228Z,17.80
2019-02-07T09:12:06.454Z,18.61
2019-02-07T09:17:14.721Z,18.54
2019-02-07T09:22:23.892Z,17.25
2019-02-07T09:27:30.603Z,17.65
2019-02-07T09:32:38.929Z,17.10
2019-02-07T09:37:47.066Z,16.36
2019-02-07T09:42:55.254Z,15.92
2019-02-07T09:48:03.887Z,15.54
2019-02-07T09:53:12.133Z,15.64
2019-02-07T09:58:20.329Z,16.25
2019-02-07T10:03:28.570Z,16.72
2019-02-07T10:08:36.939Z,17.16
2019-02-07T10:13:45.849Z,16.54
2019-02-07T10:18:54.088Z,16.91
2019-02-07T10:24:02.272Z,15.87
2019-02-07T10:29:10.529Z,16.25
2019-02-07T10:34:18.902Z,16.82
2019-02-07T10:39:26.860Z,15.52
2019-02-07T10:44:34.442Z,16.20
2019-02-07T10:49:42.556Z,15.81
2019-02-07T10:54:50.673Z,15.90
2019-02-07T10:59:58.867Z,15.82
2019-02-07T11:05:06.998Z,16.34
2019-02-07T11:10:15.246Z,16.55
2019-02-07T11:15:23.365Z,17.54
2019-02-07T11:20:31.496Z,16.40
2019-02-07T11:25:39.665Z,16.75
2019-02-07T11:30:47.807Z,17.30
2019-02-07T11:35:56.051Z,16.89
2019-02-07T11:41:04.240Z,16.54
2019-02-07T11:46:12.461Z,17.03
2019-02-07T11:51:20.527Z,17.71
2019-02-07T11:56:28.803Z,16.42
2019-02-07T12:01:37.661Z,16.29
2019-02-07T12:06:45.845Z,14.96
2019-02-07T12:11:53.996Z,14.13
2019-02-07T12:17:02.314Z,13.41
2019-02-07T12:22:10.432Z,13.20
2019-02-07T12:27:18.730Z,12.44
2019-02-07T12:32:27.805Z,11.59
2019-02-07T12:37:35.937Z,11.21
2019-02-07T12:42:43.470Z,10.69
2019-02-07T12:47:51.563Z,10.03
2019-02-07T12:52:59.893Z,10.20
2019-02-07T12:58:08.217Z,9.35
2019-02-07T13:03:16.352Z,9.28
2019-02-07T13:08:24.495Z,8.90
2019-02-07T13:13:32.648Z,9.27
2019-02-07T13:18:40.733Z,9.26
2019-02-07T13:23:48.986Z,9.71
2019-02-07T13:28:57.189Z,9.34
2019-02-07T13:34:05.354Z,9.11
2019-02-07T13:39:13.481Z,9.16
2019-02-07T13:44:21.606Z,7.48
2019-02-07T13:49:29.866Z,6.11
2019-02-07T13:54:38.167Z,4.37
2019-02-07T13:59:46.283Z,3.76
2019-02-07T14:04:54.393Z,3.55
2019-02-07T14:10:02.528Z,3.79
2019-02-07T14:15:10.815Z,3.24
2019-02-07T14:20:19.157Z,3.31
2019-02-07T14:25:27.297Z,4.37
2019-02-07T14:30:35.417Z,4.75
2019-02-07T14:35:43.587Z,4.76
2019-02-07T14:40:51.931Z,4.52
2019-02-07T14:46:00.221Z,4.54
2019-02-07T14:51:08.420Z,4.31
2019-02-07T14:56:16.654Z,4.64
2019-02-07T15:01:25.433Z,4.87
2019-02-07T15:06:33.581Z,4.46
2019-02-07T15:11:41.705Z,4.07
2019-02-07T15:16:50.051Z,3.58
2019-02-07T15:21:58.327Z,3.83
2019-02-07T15:27:06.653Z,3.43
2019-02-07T15:32:14.929Z,3.37
2019-02-07T15:37:23.509Z,3.36
2019-02-07T15:42:31.626Z,3.47
2019-02-07T15:47:39.774Z,3.26
2019-02-07T15:52:47.934Z,3.60
2019-02-07T15:57:56.090Z,3.57
2019-02-07T16:03:04.239Z,4.03
2019-02-07T16:08:11.950Z,3.93
2019-02-07T16:13:20.211Z,3.65
2019-02-07T16:18:28.507Z,3.98
2019-02-07T16:23:36.627Z,3.73
2019-02-07T16:28:44.456Z,3.98
2019-02-07T16:33:52.829Z,4.10
2019-02-07T16:39:01.101Z,3.82
2019-02-07T16:44:09.468Z,3.54
2019-02-07T16:49:17.790Z,3.59
2019-02-07T16:54:26.066Z,3.95
2019-02-07T16:59:34.248Z,3.50
2019-02-07T17:04:42.546Z,3.53
2019-02-07T17:09:50.961Z,3.82
2019-02-07T17:14:59.184Z,4.12
2019-02-07T17:20:14.492Z,4.00
2019-02-07T17:25:15.887Z,3.98
2019-02-07T17:30:23.981Z,4.32
2019-02-07T17:35:32.108Z,3.97
2019-02-07T17:40:40.393Z,4.66
2019-02-07T17:45:48.566Z,3.62
2019-02-07T17:50:56.689Z,3.51
2019-02-07T17:56:04.763Z,3.63
2019-02-07T18:01:12.805Z,3.58
2019-02-07T18:06:20.913Z,4.04
2019-02-07T18:11:28.947Z,4.18
2019-02-07T18:16:37.185Z,3.79
2019-02-07T18:21:45.313Z,4.18
2019-02-07T18:26:53.477Z,3.32
2019-02-07T18:32:01.614Z,3.46
2019-02-07T18:37:09.686Z,3.45
2019-02-07T18:42:18.584Z,3.35
2019-02-07T18:47:27.702Z,2.84
2019-02-07T18:52:35.860Z,3.19
2019-02-07T18:57:44.260Z,4.07
2019-02-07T19:02:52.550Z,3.34
2019-02-07T19:08:00.656Z,3.41
2019-02-07T19:13:08.808Z,3.48
2019-02-07T19:18:16.996Z,3.45
2019-02-07T19:23:25.184Z,3.06
2019-02-07T19:28:33.421Z,2.89
2019-02-07T19:33:41.616Z,3.33
2019-02-07T19:38:50.017Z,3.45
2019-02-07T19:43:58.336Z,3.15
2019-02-07T19:49:06.537Z,2.95
2019-02-07T19:54:14.810Z,3.35
2019-02-07T19:59:23.021Z,3.53
2019-02-07T20:04:31.193Z,2.96
2019-02-07T20:09:39.298Z,3.42
2019-02-07T20:14:47.732Z,3.42
2019-02-07T20:19:55.869Z,3.51
2019-02-07T20:25:03.961Z,3.60
2019-02-07T20:30:12.008Z,5.97
2019-02-07T20:35:20.120Z,6.80
2019-02-07T20:40:28.433Z,3.56
2019-02-07T20:45:36.696Z,3.20
2019-02-07T20:50:44.957Z,2.86
2019-02-07T20:55:53.696Z,2.91
2019-02-07T21:01:01.869Z,2.90
2019-02-07T21:06:10.020Z,2.78
2019-02-07T21:11:18.144Z,3.01
2019-02-07T21:16:26.489Z,3.08
2019-02-07T21:21:34.944Z,3.01
2019-02-07T21:26:43.057Z,2.96
2019-02-07T21:31:51.475Z,3.83
2019-02-07T21:36:59.801Z,2.55
2019-02-07T21:42:07.905Z,2.85
2019-02-07T21:47:16.036Z,2.89
2019-02-07T21:52:24.250Z,4.30
2019-02-07T21:57:32.627Z,3.21
2019-02-07T22:02:40.747Z,3.15
2019-02-07T22:07:49.198Z,3.37
2019-02-07T22:12:57.596Z,3.19
2019-02-07T22:18:05.973Z,3.25
2019-02-07T22:23:14.641Z,3.44
2019-02-07T22:28:22.960Z,3.60
2019-02-07T22:33:31.758Z,3.53
2019-02-07T22:38:39.933Z,3.67
2019-02-07T22:43:48.148Z,3.75
2019-02-07T22:48:56.502Z,3.76
2019-02-07T22:54:04.911Z,3.69
2019-02-07T22:59:12.945Z,3.48
2019-02-07T23:04:21.112Z,3.20
2019-02-07T23:09:29.310Z,3.25
2019-02-07T23:14:37.403Z,3.34
2019-02-07T23:19:45.529Z,3.51
2019-02-07T23:24:53.791Z,3.48
2019-02-07T23:30:01.861Z,3.24
2019-02-07T23:35:09.988Z,3.33
2019-02-07T23:40:18.106Z,3.05
2019-02-07T23:45:26.260Z,3.07
2019-02-07T23:50:34.531Z,3.14
2019-02-07T23:55:42.633Z,2.87
